.
WxDataArchive / Data Records for 2016-04-01
2016-03-31 April 2016 2016-04-02

Data Records for Friday, 01 April 2016

Time	Temp	Chill	HIndex	Humid	Dewpt	 Wind 	HiWind	WindDir	Rain 	Barom
-----	----	-----	------	-----	-----	------	------	-------	-----	-----
00:00	52.0	52.0	52.0	73	43.6	2	3	248	0.00	29.510 
00:05	52.0	52.0	52.0	73	43.6	1	3	248	0.00	29.510 
00:10	52.0	52.0	52.0	74	44.0	2	5	248	0.00	29.510 
00:15	51.9	51.9	51.9	74	43.9	2	5	248	0.00	29.514 
00:20	51.9	51.9	51.9	75	44.2	1	3	248	0.00	29.514 
00:25	51.7	51.7	51.7	75	44.0	2	5	248	0.00	29.514 
00:30	51.7	51.7	51.7	76	44.4	1	3	248	0.00	29.515 
00:35	51.6	51.6	51.6	77	44.6	1	4	248	0.00	29.515 
00:40	51.4	51.4	51.4	77	44.4	2	4	248	0.00	29.515 
00:45	51.3	51.3	51.3	77	44.3	2	4	248	0.00	29.523 
00:50	51.1	51.1	51.1	77	44.1	1	5	248	0.00	29.523 
00:55	51.0	51.0	51.0	77	44.0	1	3	248	0.00	29.523 
01:00	50.8	50.8	50.8	77	43.9	1	4	270	0.00	29.528 
01:05	50.7	50.7	50.7	77	43.8	1	4	270	0.00	29.528 
01:10	50.5	50.5	50.5	77	43.6	2	4	270	0.00	29.528 
01:15	50.4	50.4	50.4	77	43.5	1	4	248	0.00	29.531 
01:20	50.1	50.1	50.1	77	43.2	2	4	270	0.00	29.531 
01:25	49.9	49.9	49.9	76	42.6	1	4	270	0.00	29.531 
01:30	49.6	49.6	49.6	75	42.0	2	4	270	0.00	29.538 
01:35	49.5	49.5	49.5	75	41.9	1	3	270	0.00	29.538 
01:40	49.4	49.4	49.4	75	41.8	1	3	270	0.00	29.538 
01:45	49.1	49.1	49.1	76	41.9	1	3	270	0.00	29.544 
01:50	48.8	48.8	48.8	74	40.9	1	5	270	0.00	29.544 
01:55	48.6	48.6	48.6	73	40.3	2	4	248	0.00	29.544 
02:00	48.5	48.5	48.5	72	39.9	2	5	270	0.00	29.556 
02:05	48.5	48.5	48.5	71	39.5	2	4	248	0.00	29.556 
02:10	48.3	48.3	48.3	71	39.3	1	3	248	0.00	29.556 
02:15	48.0	48.0	48.0	72	39.4	0	3	248	0.00	29.554 
02:20	47.9	47.9	47.9	72	39.3	2	5	292	0.00	29.554 
02:25	47.9	47.9	47.9	71	39.0	1	4	270	0.00	29.554 
02:30	47.7	47.7	47.7	72	39.1	1	3	270	0.00	29.555 
02:35	47.7	47.7	47.7	73	39.5	1	2	270	0.00	29.555 
02:40	47.6	47.6	47.6	73	39.4	1	5	270	0.00	29.555 
02:45	47.4	47.4	47.4	73	39.2	1	5	270	0.00	29.556 
02:50	47.3	47.3	47.3	73	39.1	1	3	270	0.00	29.556 
02:55	47.1	47.1	47.1	72	38.5	1	3	270	0.00	29.556 
03:00	47.0	47.0	47.0	72	38.4	1	4	270	0.00	29.555 
03:05	47.0	47.0	47.0	73	38.8	1	3	248	0.00	29.555 
03:10	46.8	46.8	46.8	73	38.6	2	5	270	0.00	29.555 
03:15	46.7	46.7	46.7	73	38.5	1	3	270	0.00	29.556 
03:20	46.5	46.5	46.5	74	38.7	1	3	270	0.00	29.556 
03:25	46.4	46.4	46.4	75	38.9	1	2	270	0.00	29.556 
03:30	46.2	46.2	46.2	75	38.7	0	2	270	0.00	29.557 
03:35	46.1	46.1	46.1	76	39.0	0	3	270	0.00	29.557 
03:40	46.1	46.1	46.1	76	39.0	0	2	270	0.00	29.557 
03:45	46.0	46.0	46.0	77	39.2	1	3	270	0.00	29.556 
03:50	45.8	45.8	45.8	77	39.0	0	3	270	0.00	29.556 
03:55	45.8	45.8	45.8	78	39.3	0	2	270	0.00	29.556 
04:00	45.7	45.7	45.7	78	39.2	0	3	270	0.00	29.557 
04:05	45.7	45.7	45.7	79	39.6	1	4	270	0.00	29.557 
04:10	45.7	45.7	45.7	79	39.6	1	4	292	0.00	29.557 
04:15	45.8	45.8	45.8	79	39.7	1	4	270	0.00	29.565 
04:20	45.8	45.8	45.8	79	39.7	1	4	248	0.00	29.565 
04:25	45.8	45.8	45.8	79	39.7	1	3	248	0.00	29.565 
04:30	45.7	45.7	45.7	80	39.9	1	3	248	0.00	29.567 
04:35	45.8	45.8	45.8	80	40.0	1	5	248	0.00	29.567 
04:40	45.8	45.8	45.8	80	40.0	2	4	248	0.00	29.567 
04:45	46.0	46.0	46.0	79	39.9	2	4	248	0.00	29.570 
04:50	46.1	46.1	46.1	79	40.0	2	4	248	0.00	29.570 
04:55	46.1	46.1	46.1	79	40.0	1	4	248	0.00	29.570 
05:00	46.0	46.0	46.0	80	40.2	1	3	248	0.00	29.565 
05:05	46.0	46.0	46.0	80	40.2	1	3	248	0.00	29.565 
05:10	45.8	45.8	45.8	80	40.0	1	3	248	0.00	29.565 
05:15	45.7	45.7	45.7	80	39.9	1	5	270	0.00	29.576 
05:20	45.5	45.5	45.5	80	39.7	1	3	270	0.00	29.576 
05:25	45.4	45.4	45.4	81	39.9	1	4	270	0.00	29.576 
05:30	45.4	45.4	45.4	81	39.9	1	2	270	0.00	29.580 
05:35	45.4	45.4	45.4	81	39.9	2	4	248	0.00	29.580 
05:40	45.4	45.4	45.4	81	39.9	1	3	248	0.00	29.580 
05:45	45.4	45.4	45.4	82	40.2	1	3	248	0.00	29.585 
05:50	45.2	45.2	45.2	82	40.0	1	3	248	0.00	29.585 
05:55	45.2	45.2	45.2	82	40.0	1	3	248	0.00	29.585 
06:00	45.2	45.2	45.2	82	40.0	1	3	248	0.00	29.592 
06:05	45.4	45.4	45.4	82	40.2	1	3	248	0.00	29.592 
06:10	45.4	45.4	45.4	82	40.2	1	2	248	0.00	29.592 
06:15	45.4	45.4	45.4	82	40.2	0	2	248	0.00	29.592 
06:20	45.4	45.4	45.4	83	40.5	1	3	248	0.00	29.592 
06:25	45.4	45.4	45.4	83	40.5	1	4	248	0.00	29.592 
06:30	45.4	45.4	45.4	83	40.5	1	3	270	0.00	29.593 
06:35	45.2	45.2	45.2	82	40.0	1	4	292	0.00	29.593 
06:40	45.1	45.1	45.1	82	39.9	1	3	292	0.00	29.593 
06:45	44.9	44.9	44.9	81	39.4	1	3	292	0.00	29.596 
06:50	44.8	44.8	44.8	81	39.3	1	3	292	0.00	29.596 
06:55	44.6	44.6	44.6	81	39.1	1	3	292	0.00	29.596 
07:00	44.5	44.5	44.5	81	39.0	1	2	292	0.00	29.595 
07:05	44.5	44.5	44.5	81	39.0	1	2	292	0.00	29.595 
07:10	44.3	44.3	44.3	81	38.8	1	3	292	0.00	29.595 
07:15	44.3	44.3	44.3	81	38.8	1	4	292	0.00	29.601 
07:20	44.2	44.2	44.2	80	38.4	1	2	292	0.00	29.601 
07:25	44.1	44.1	44.1	80	38.3	0	2	292	0.00	29.601 
07:30	44.1	44.1	44.1	80	38.3	0	1	292	0.00	29.597 
07:35	44.1	44.1	44.1	80	38.3	1	4	338	0.00	29.597 
07:40	43.9	43.9	43.9	80	38.1	1	3	338	0.00	29.597 
07:45	43.8	43.8	43.8	80	38.0	1	3	338	0.00	29.607 
07:50	43.6	43.6	43.6	80	37.8	0	3	315	0.00	29.607 
07:55	43.5	43.5	43.5	80	37.7	1	3	292	0.00	29.607 
08:00	43.3	43.3	43.3	80	37.6	1	3	292	0.00	29.621 
08:05	43.3	43.3	43.3	81	37.9	1	4	292	0.00	29.621 
08:10	43.3	43.3	43.3	80	37.6	2	3	292	0.00	29.621 
08:15	43.3	43.3	43.3	81	37.9	2	4	292	0.00	29.641 
08:20	43.3	43.3	43.3	80	37.6	1	3	292	0.00	29.641 
08:25	43.2	43.2	43.2	80	37.5	1	4	338	0.00	29.641 
08:30	43.2	43.2	43.2	80	37.5	1	3	315	0.00	29.641 
08:35	43.2	43.2	43.2	80	37.5	2	4	292	0.00	29.641 
08:40	43.2	43.2	43.2	81	37.8	1	3	292	0.00	29.641 
08:45	43.2	43.2	43.2	81	37.8	1	3	292	0.00	29.642 
08:50	43.3	43.3	43.3	81	37.9	1	3	315	0.00	29.642 
08:55	43.3	43.3	43.3	81	37.9	1	3	315	0.00	29.642 
09:00	43.3	43.3	43.3	81	37.9	1	4	292	0.00	29.642 
09:05	43.5	43.5	43.5	81	38.1	1	3	292	0.00	29.642 
09:10	43.6	43.6	43.6	81	38.2	1	3	315	0.00	29.642 
09:15	43.6	43.6	43.6	81	38.2	1	4	338	0.00	29.645 
09:20	43.6	43.6	43.6	82	38.5	1	4	315	0.00	29.645 
09:25	43.8	43.8	43.8	82	38.7	1	4	315	0.00	29.645 
09:30	43.8	43.8	43.8	82	38.7	1	3	292	0.00	29.656 
09:35	43.8	43.8	43.8	82	38.7	1	5	338	0.00	29.656 
09:40	43.8	43.8	43.8	82	38.7	1	3	315	0.00	29.656 
09:45	43.8	43.8	43.8	81	38.4	1	3	0	0.00	29.659 
09:50	44.1	44.1	44.1	82	39.0	1	4	315	0.00	29.659 
09:55	44.3	44.3	44.3	82	39.2	1	4	315	0.00	29.659 
10:00	44.6	44.6	44.6	81	39.1	2	7	315	0.00	29.650 
10:05	44.6	44.6	44.6	81	39.1	1	7	292	0.00	29.650 
10:10	44.8	44.8	44.8	81	39.3	1	3	315	0.00	29.650 
10:15	45.1	45.1	45.1	81	39.6	1	3	315	0.00	29.647 
10:20	45.7	45.7	45.7	80	39.9	0	2	315	0.00	29.647 
10:25	46.1	46.1	46.1	79	40.0	0	2	315	0.00	29.647 
10:30	46.2	46.2	46.2	77	39.4	1	3	315	0.00	29.643 
10:35	46.5	46.5	46.5	77	39.7	0	3	315	0.00	29.643 
10:40	46.8	46.8	46.8	76	39.6	0	3	315	0.00	29.643 
10:45	47.0	47.0	47.0	76	39.8	0	2	315	0.00	29.654 
10:50	47.7	47.7	47.7	77	40.8	0	2	315	0.00	29.654 
10:55	48.3	48.3	48.3	75	40.7	0	2	315	0.00	29.654 
11:00	48.6	48.6	48.6	72	40.0	1	2	292	0.00	29.657 
11:05	48.5	48.5	48.5	71	39.5	1	3	270	0.00	29.657 
11:10	48.3	48.3	48.3	72	39.7	1	3	270	0.00	29.657 
11:15	48.0	48.0	48.0	71	39.1	1	2	270	0.00	29.663 
11:20	47.7	47.7	47.7	72	39.1	1	2	270	0.00	29.663 
11:25	47.4	47.4	47.4	72	38.8	1	4	270	0.00	29.663 
11:30	47.1	47.1	47.1	73	38.9	1	2	270	0.00	29.666 
11:35	46.8	46.8	46.8	74	39.0	1	3	270	0.00	29.666 
11:40	46.8	46.8	46.8	75	39.3	1	3	270	0.00	29.666 
11:45	46.5	46.5	46.5	76	39.3	1	4	270	0.00	29.672 
11:50	46.5	46.5	46.5	78	40.0	1	2	315	0.00	29.672 
11:55	46.2	46.2	46.2	78	39.7	1	3	315	0.00	29.672 
12:00	46.0	46.0	46.0	79	39.9	1	3	315	0.00	29.679 
12:05	45.7	45.7	45.7	79	39.6	1	3	315	0.00	29.679 
12:10	45.5	45.5	45.5	81	40.0	1	2	315	0.01	29.679 
12:15	45.2	45.2	45.2	81	39.7	1	3	315	0.00	29.681 
12:20	45.1	45.1	45.1	82	39.9	0	1	315	0.00	29.681 
12:25	45.1	45.1	45.1	84	40.6	0	1	315	0.01	29.681 
12:30	44.9	44.9	44.9	84	40.4	0	1	315	0.00	29.690 
12:35	44.8	44.8	44.8	85	40.6	0	2	315	0.01	29.690 
12:40	44.6	44.6	44.6	86	40.7	1	3	315	0.00	29.690 
12:45	44.5	44.5	44.5	86	40.6	0	1	315	0.01	29.695 
12:50	44.3	44.3	44.3	87	40.7	1	3	315	0.01	29.695 
12:55	44.2	44.2	44.2	87	40.6	0	2	315	0.01	29.695 
13:00	44.1	44.1	44.1	88	40.8	1	3	315	0.00	29.696 
13:05	44.1	44.1	44.1	88	40.8	1	3	315	0.01	29.696 
13:10	44.1	44.1	44.1	88	40.8	1	3	315	0.00	29.696 
13:15	44.1	44.1	44.1	88	40.8	1	3	315	0.00	29.702 
13:20	44.1	44.1	44.1	88	40.8	1	3	315	0.00	29.702 
13:25	44.1	44.1	44.1	88	40.8	1	3	315	0.00	29.702 
13:30	43.9	43.9	43.9	88	40.6	2	4	270	0.01	29.712 
13:35	43.9	43.9	43.9	88	40.6	1	3	270	0.01	29.712 
13:40	43.9	43.9	43.9	88	40.6	1	3	292	0.00	29.712 
13:45	43.8	43.8	43.8	89	40.8	1	3	292	0.00	29.713 
13:50	43.6	43.6	43.6	89	40.6	1	4	338	0.00	29.713 
13:55	43.6	43.6	43.6	88	40.3	1	4	292	0.00	29.713 
14:00	43.5	43.5	43.5	88	40.2	1	3	292	0.00	29.713 
14:05	43.6	43.6	43.6	88	40.3	1	2	292	0.00	29.713 
14:10	44.1	44.1	44.1	89	41.1	1	2	292	0.00	29.713 
14:15	44.1	44.1	44.1	88	40.8	1	3	292	0.00	29.715 
14:20	44.2	44.2	44.2	88	40.9	0	3	292	0.00	29.715 
14:25	44.2	44.2	44.2	88	40.9	1	3	292	0.00	29.715 
14:30	44.1	44.1	44.1	87	40.5	2	5	315	0.00	29.723 
14:35	43.9	43.9	43.9	87	40.3	1	3	292	0.00	29.723 
14:40	43.6	43.6	43.6	87	40.0	1	4	248	0.02	29.723 
14:45	43.2	43.2	43.2	88	39.9	0	2	248	0.01	29.725 
14:50	42.9	42.9	42.9	88	39.6	1	3	248	0.01	29.725 
14:55	43.2	43.2	43.2	90	40.5	0	3	248	0.01	29.725 
15:00	43.9	43.9	43.9	91	41.4	1	2	248	0.00	29.715 
15:05	44.6	44.6	44.6	91	42.1	1	3	292	0.01	29.715 
15:10	45.4	45.4	45.4	92	43.2	2	4	292	0.00	29.715 
15:15	45.7	45.7	45.7	91	43.2	2	6	292	0.00	29.703 
15:20	45.7	45.7	45.7	91	43.2	3	5	338	0.00	29.703 
15:25	45.2	45.2	45.2	89	42.2	3	6	292	0.00	29.703 
15:30	45.4	45.4	45.4	89	42.3	2	5	292	0.00	29.700 
15:35	45.4	45.4	45.4	87	41.8	3	6	292	0.00	29.700 
15:40	46.0	46.0	46.0	87	42.4	2	4	270	0.00	29.700 
15:45	46.8	46.8	46.8	86	42.8	2	4	292	0.00	29.698 
15:50	47.0	47.0	47.0	82	41.8	3	7	292	0.00	29.698 
15:55	47.1	47.1	47.1	81	41.6	2	4	270	0.00	29.698 
16:00	46.8	46.8	46.8	79	40.6	2	5	270	0.00	29.698 
16:05	46.5	46.5	46.5	78	40.0	2	4	270	0.00	29.698 
16:10	46.2	46.2	46.2	77	39.4	3	5	270	0.00	29.698 
16:15	46.4	46.4	46.4	76	39.3	2	4	292	0.00	29.701 
16:20	46.7	46.7	46.7	75	39.2	2	4	292	0.00	29.701 
16:25	46.8	46.8	46.8	75	39.3	2	4	292	0.00	29.701 
16:30	46.7	46.7	46.7	74	38.9	3	6	292	0.00	29.708 
16:35	46.5	46.5	46.5	75	39.0	3	6	292	0.00	29.708 
16:40	46.4	46.4	46.4	75	38.9	3	6	270	0.00	29.708 
16:45	46.5	46.5	46.5	74	38.7	2	4	292	0.00	29.710 
16:50	46.8	46.8	46.8	73	38.6	2	5	292	0.00	29.710 
16:55	47.3	47.3	47.3	73	39.1	2	5	292	0.00	29.710 
17:00	47.4	47.4	47.4	72	38.8	2	6	338	0.00	29.713 
17:05	47.7	47.7	47.7	72	39.1	2	3	315	0.00	29.713 
17:10	47.7	47.7	47.7	70	38.4	2	5	315	0.00	29.713 
17:15	47.4	47.4	47.4	70	38.1	2	4	270	0.00	29.723 
17:20	47.3	47.3	47.3	70	38.0	2	4	270	0.00	29.723 
17:25	47.1	47.1	47.1	71	38.2	1	3	270	0.00	29.723 
17:30	47.3	47.3	47.3	70	38.0	2	5	248	0.00	29.735 
17:35	47.3	47.3	47.3	71	38.4	1	3	248	0.00	29.735 
17:40	47.1	47.1	47.1	71	38.2	2	5	248	0.00	29.735 
17:45	46.8	46.8	46.8	70	37.5	3	7	292	0.00	29.734 
17:50	46.7	46.7	46.7	70	37.4	1	5	270	0.00	29.734 
17:55	46.7	46.7	46.7	70	37.4	2	4	292	0.00	29.734 
18:00	46.7	46.7	46.7	70	37.4	1	4	270	0.00	29.738 
18:05	46.7	46.7	46.7	70	37.4	1	3	270	0.00	29.738 
18:10	46.8	46.8	46.8	69	37.2	1	4	270	0.00	29.738 
18:15	46.7	46.7	46.7	69	37.1	2	4	292	0.00	29.746 
18:20	46.7	46.7	46.7	69	37.1	2	4	270	0.00	29.746 
18:25	46.7	46.7	46.7	70	37.4	2	5	270	0.00	29.746 
18:30	46.5	46.5	46.5	70	37.3	1	4	315	0.00	29.744 
18:35	46.4	46.4	46.4	69	36.8	2	4	292	0.00	29.744 
18:40	46.2	46.2	46.2	70	37.0	2	4	292	0.00	29.744 
18:45	46.2	46.2	46.2	70	37.0	3	5	270	0.00	29.742 
18:50	46.2	46.2	46.2	70	37.0	2	4	270	0.00	29.742 
18:55	46.1	46.1	46.1	70	36.9	3	5	270	0.00	29.742 
19:00	46.2	46.2	46.2	69	36.6	3	5	292	0.00	29.747 
19:05	46.1	46.1	46.1	70	36.9	2	5	270	0.00	29.747 
19:10	46.0	46.0	46.0	70	36.8	1	3	270	0.00	29.747 
19:15	45.8	45.8	45.8	71	36.9	1	3	270	0.00	29.745 
19:20	45.7	45.7	45.7	71	36.8	1	4	270	0.00	29.745 
19:25	45.7	45.7	45.7	70	36.5	1	3	292	0.00	29.745 
19:30	45.7	45.7	45.7	70	36.5	1	4	292	0.00	29.747 
19:35	45.7	45.7	45.7	71	36.8	1	3	292	0.00	29.747 
19:40	45.8	45.8	45.8	71	36.9	0	2	292	0.00	29.747 
19:45	45.8	45.8	45.8	71	36.9	1	2	292	0.00	29.746 
19:50	45.7	45.7	45.7	71	36.8	1	3	292	0.00	29.746 
19:55	45.5	45.5	45.5	72	37.0	0	2	292	0.00	29.746 
20:00	45.4	45.4	45.4	72	36.9	0	1	292	0.00	29.734 
20:05	45.1	45.1	45.1	73	37.0	0	2	292	0.00	29.734 
20:10	44.9	44.9	44.9	73	36.8	0	1	292	0.00	29.734 
20:15	44.6	44.6	44.6	73	36.5	0	1	292	0.00	29.735 
20:20	44.5	44.5	44.5	74	36.7	0	1	292	0.00	29.735 
20:25	44.3	44.3	44.3	74	36.5	0	1	292	0.00	29.735 
20:30	44.1	44.1	44.1	75	36.7	0	0	---	0.00	29.742 
20:35	43.9	43.9	43.9	75	36.5	0	0	---	0.00	29.742 
20:40	43.8	43.8	43.8	76	36.7	0	0	---	0.00	29.742 
20:45	43.6	43.6	43.6	77	36.9	0	1	292	0.00	29.735 
20:50	43.3	43.3	43.3	77	36.6	0	1	292	0.00	29.735 
20:55	43.2	43.2	43.2	77	36.5	0	0	---	0.00	29.735 
21:00	43.1	43.1	43.1	78	36.7	0	0	---	0.00	29.749 
21:05	42.9	42.9	42.9	78	36.5	0	0	---	0.00	29.749 
21:10	42.9	42.9	42.9	79	36.8	0	1	292	0.00	29.749 
21:15	42.8	42.8	42.8	79	36.7	0	1	292	0.00	29.746 
21:20	42.6	42.6	42.6	79	36.6	0	1	292	0.00	29.746 
21:25	42.6	42.6	42.6	80	36.9	0	1	292	0.00	29.746 
21:30	42.6	42.6	42.6	80	36.9	0	1	292	0.00	29.747 
21:35	42.5	42.5	42.5	80	36.8	0	1	292	0.00	29.747 
21:40	42.5	42.5	42.5	81	37.1	0	1	292	0.00	29.747 
21:45	42.6	42.6	42.6	81	37.2	0	1	292	0.00	29.750 
21:50	42.6	42.6	42.6	81	37.2	0	1	292	0.00	29.750 
21:55	42.6	42.6	42.6	81	37.2	0	1	292	0.00	29.750 
22:00	42.6	42.6	42.6	81	37.2	0	1	292	0.00	29.755 
22:05	42.5	42.5	42.5	81	37.1	0	1	292	0.00	29.755 
22:10	42.5	42.5	42.5	82	37.4	0	1	292	0.00	29.755 
22:15	42.5	42.5	42.5	82	37.4	0	2	292	0.00	29.754 
22:20	42.3	42.3	42.3	83	37.5	0	2	292	0.00	29.754 
22:25	42.3	42.3	42.3	84	37.8	0	1	292	0.00	29.754 
22:30	42.3	42.3	42.3	84	37.8	0	1	292	0.00	29.755 
22:35	42.3	42.3	42.3	84	37.8	0	2	292	0.00	29.755 
22:40	42.2	42.2	42.2	84	37.7	0	2	292	0.00	29.755 
22:45	42.2	42.2	42.2	84	37.7	0	1	292	0.00	29.750 
22:50	42.2	42.2	42.2	84	37.7	0	1	292	0.00	29.750 
22:55	42.2	42.2	42.2	84	37.7	0	1	292	0.00	29.750 
23:00	42.3	42.3	42.3	84	37.8	0	2	292	0.00	29.747 
23:05	42.5	42.5	42.5	84	38.0	0	1	292	0.00	29.747 
23:10	42.6	42.6	42.6	84	38.1	0	2	292	0.00	29.747 
23:15	42.8	42.8	42.8	83	38.0	1	3	270	0.00	29.757 
23:20	42.3	39.2	42.3	81	36.9	5	10	270	0.00	29.757 
23:25	41.2	41.2	41.2	82	36.1	3	6	270	0.00	29.757 
23:30	39.9	37.2	39.9	83	35.2	4	9	270	0.00	29.779 
23:35	39.1	39.1	39.1	84	34.7	3	9	292	0.00	29.779 
23:40	38.5	38.5	38.5	85	34.4	3	6	292	0.01	29.779 
23:45	37.9	37.9	37.9	86	34.1	2	4	292	0.01	29.771 
23:50	37.8	37.8	37.8	86	34.0	1	3	292	0.00	29.771 
23:55	37.6	37.6	37.6	87	34.1	0	2	315	0.00	29.771 

CoCoRaHS
IN-AL-39
A2 Web Hosting
Creative Commons License
GoDaddy
search engine by freefind advanced

loaded 2018-11-18 12:05:12 • last modified 2010-11-18 10:43:29
Privacy PolicyDisclaimer
• wx.awcolley.com is powered by PmWiki v.2002016 •
• all content (unless otherwise noted) © 2018 A W Colley